createdAt,value
2023-01-08T00:00:08.387Z,100.00
2023-01-08T00:03:17.686Z,100.00
2023-01-08T00:06:07.443Z,100.00
2023-01-08T00:08:53.984Z,100.00
2023-01-08T00:11:42.170Z,100.00
2023-01-08T00:14:33.720Z,100.00
2023-01-08T00:17:20.605Z,100.00
2023-01-08T00:20:12.632Z,100.00
2023-01-08T00:22:59.316Z,100.00
2023-01-08T00:25:46.966Z,100.00
2023-01-08T00:28:33.944Z,100.00
2023-01-08T00:31:20.860Z,100.00
2023-01-08T00:34:08.081Z,100.00
2023-01-08T00:36:54.635Z,100.00
2023-01-08T00:39:42.761Z,100.00
2023-01-08T00:42:31.692Z,100.00
2023-01-08T00:45:19.650Z,100.00
2023-01-08T00:48:08.353Z,100.00
2023-01-08T00:50:55.459Z,100.00
2023-01-08T00:53:43.942Z,100.00
2023-01-08T00:56:30.829Z,100.00
2023-01-08T00:59:21.559Z,100.00
2023-01-08T01:02:08.661Z,100.00
2023-01-08T01:04:55.451Z,100.00
2023-01-08T01:07:45.521Z,100.00
2023-01-08T01:10:32.361Z,100.00
2023-01-08T01:13:19.194Z,100.00
2023-01-08T01:16:07.760Z,100.00
2023-01-08T01:18:57.699Z,100.00
2023-01-08T01:21:44.564Z,100.00
2023-01-08T01:24:31.604Z,100.00
2023-01-08T01:27:18.192Z,100.00
2023-01-08T01:30:06.611Z,100.00
2023-01-08T01:32:53.504Z,100.00
2023-01-08T01:35:40.273Z,100.00
2023-01-08T01:38:27.013Z,100.00
2023-01-08T01:41:32.683Z,100.00
2023-01-08T01:44:45.380Z,100.00
2023-01-08T01:47:39.862Z,100.00
2023-01-08T01:50:30.792Z,100.00
2023-01-08T01:53:34.521Z,100.00
2023-01-08T01:56:22.577Z,100.00
2023-01-08T01:59:10.912Z,100.00
2023-01-08T02:01:58.519Z,100.00
2023-01-08T02:04:45.103Z,100.00
2023-01-08T02:07:53.945Z,100.00
2023-01-08T02:10:49.044Z,100.00
2023-01-08T02:13:49.079Z,100.00
2023-01-08T02:17:01.241Z,100.00
2023-01-08T02:19:58.120Z,100.00
2023-01-08T02:22:56.522Z,100.00
2023-01-08T02:25:43.198Z,100.00
2023-01-08T02:28:32.688Z,100.00
2023-01-08T02:31:21.598Z,100.00
2023-01-08T02:34:09.284Z,100.00
2023-01-08T02:36:57.648Z,100.00
2023-01-08T02:39:43.877Z,100.00
2023-01-08T02:42:43.560Z,100.00
2023-01-08T02:45:36.266Z,100.00
2023-01-08T02:49:07.631Z,100.00
2023-01-08T02:51:57.552Z,100.00
2023-01-08T02:54:47.057Z,100.00
2023-01-08T02:57:34.434Z,100.00
2023-01-08T03:00:21.336Z,100.00
2023-01-08T03:03:20.011Z,100.00
2023-01-08T03:06:10.541Z,100.00
2023-01-08T03:08:59.318Z,100.00
2023-01-08T03:12:00.759Z,100.00
2023-01-08T03:15:04.383Z,100.00
2023-01-08T03:17:55.850Z,100.00
2023-01-08T03:20:44.160Z,100.00
2023-01-08T03:23:34.831Z,100.00
2023-01-08T03:26:26.281Z,100.00
2023-01-08T03:29:17.933Z,100.00
2023-01-08T03:32:11.397Z,100.00
2023-01-08T03:35:00.716Z,100.00
2023-01-08T03:37:54.945Z,100.00
2023-01-08T03:40:47.355Z,100.00
2023-01-08T03:43:34.155Z,100.00
2023-01-08T03:46:29.233Z,100.00
2023-01-08T03:49:17.858Z,100.00
2023-01-08T03:52:04.455Z,100.00
2023-01-08T03:54:51.920Z,100.00
2023-01-08T03:57:39.107Z,100.00
2023-01-08T04:00:25.935Z,99.93
2023-01-08T04:03:12.572Z,99.71
2023-01-08T04:06:00.420Z,99.24
2023-01-08T04:08:50.589Z,99.34
2023-01-08T04:11:38.716Z,99.38
2023-01-08T04:14:25.539Z,99.31
2023-01-08T04:17:13.425Z,99.04
2023-01-08T04:19:59.834Z,98.71
2023-01-08T04:22:46.446Z,98.54
2023-01-08T04:25:33.392Z,98.64
2023-01-08T04:28:21.070Z,98.56
2023-01-08T04:31:09.262Z,98.65
2023-01-08T04:33:55.629Z,99.03
2023-01-08T04:36:42.416Z,99.10
2023-01-08T04:39:29.654Z,99.18
2023-01-08T04:42:15.915Z,99.31
2023-01-08T04:45:02.762Z,99.18
2023-01-08T04:47:55.984Z,99.16
2023-01-08T04:50:42.696Z,99.17
2023-01-08T04:53:30.815Z,99.02
2023-01-08T04:56:17.548Z,98.17
2023-01-08T04:59:04.304Z,98.14
2023-01-08T05:01:51.164Z,98.23
2023-01-08T05:04:37.795Z,98.10
2023-01-08T05:07:25.108Z,98.11
2023-01-08T05:10:11.833Z,98.27
2023-01-08T05:13:01.713Z,98.22
2023-01-08T05:15:48.770Z,98.15
2023-01-08T05:18:49.711Z,98.21
2023-01-08T05:21:36.975Z,97.98
2023-01-08T05:24:24.377Z,97.62
2023-01-08T05:27:11.057Z,97.23
2023-01-08T05:29:58.187Z,97.14
2023-01-08T05:32:44.904Z,97.08
2023-01-08T05:35:31.513Z,96.97
2023-01-08T05:38:18.465Z,96.74
2023-01-08T05:41:05.524Z,96.86
2023-01-08T05:43:52.114Z,97.33
2023-01-08T05:46:38.810Z,97.28
2023-01-08T05:49:25.801Z,97.49
2023-01-08T05:52:12.259Z,97.59
2023-01-08T05:55:00.238Z,97.75
2023-01-08T05:57:46.919Z,98.13
2023-01-08T06:00:34.733Z,98.31
2023-01-08T06:03:23.059Z,98.39
2023-01-08T06:06:11.536Z,98.71
2023-01-08T06:08:58.639Z,98.67
2023-01-08T06:11:45.536Z,98.45
2023-01-08T06:14:32.272Z,98.16
2023-01-08T06:17:21.543Z,97.75
2023-01-08T06:20:08.888Z,97.74
2023-01-08T06:22:55.236Z,97.42
2023-01-08T06:25:41.835Z,96.71
2023-01-08T06:28:28.431Z,96.59
2023-01-08T06:34:18.189Z,96.22
2023-01-08T06:37:05.032Z,95.82
2023-01-08T06:39:51.728Z,95.58
2023-01-08T06:42:38.575Z,95.70
2023-01-08T06:45:25.211Z,95.42
2023-01-08T06:48:11.849Z,95.43
2023-01-08T06:51:02.904Z,95.20
2023-01-08T06:53:49.697Z,94.95
2023-01-08T06:56:48.985Z,94.84
2023-01-08T06:59:39.962Z,95.08
2023-01-08T07:02:27.086Z,95.02
2023-01-08T07:05:13.952Z,94.65
2023-01-08T07:08:00.916Z,94.67
2023-01-08T07:10:48.007Z,95.13
2023-01-08T07:13:36.808Z,94.67
2023-01-08T07:16:24.674Z,94.43
2023-01-08T07:19:12.786Z,94.45
2023-01-08T07:22:00.898Z,94.84
2023-01-08T07:24:47.757Z,95.31
2023-01-08T07:27:34.351Z,95.55
2023-01-08T07:30:29.907Z,95.82
2023-01-08T07:33:20.141Z,95.60
2023-01-08T07:36:07.438Z,95.42
2023-01-08T07:38:54.854Z,95.14
2023-01-08T07:41:41.567Z,95.23
2023-01-08T07:44:28.168Z,94.84
2023-01-08T07:47:15.054Z,94.73
2023-01-08T07:50:03.788Z,94.62
2023-01-08T07:52:50.320Z,94.54
2023-01-08T07:55:37.325Z,94.21
2023-01-08T07:58:23.954Z,94.10
2023-01-08T08:01:14.013Z,94.28
2023-01-08T08:04:01.410Z,94.24
2023-01-08T08:06:48.378Z,94.17
2023-01-08T08:09:37.223Z,93.73
2023-01-08T08:12:24.982Z,93.56
2023-01-08T08:15:12.189Z,93.29
2023-01-08T08:17:59.439Z,93.43
2023-01-08T08:20:46.249Z,93.43
2023-01-08T08:23:35.184Z,93.69
2023-01-08T08:26:23.777Z,94.50
2023-01-08T08:29:13.966Z,94.55
2023-01-08T08:34:09.925Z,94.50
2023-01-08T08:36:56.676Z,94.63
2023-01-08T08:39:44.557Z,94.74
2023-01-08T08:42:31.125Z,94.25
2023-01-08T08:45:37.861Z,93.86
2023-01-08T08:48:25.116Z,93.63
2023-01-08T08:51:11.964Z,93.36
2023-01-08T08:53:58.646Z,92.71
2023-01-08T08:56:48.671Z,92.35
2023-01-08T08:59:36.509Z,92.27
2023-01-08T09:02:23.430Z,92.19
2023-01-08T09:05:11.373Z,91.90
2023-01-08T09:07:58.788Z,91.54
2023-01-08T09:10:45.332Z,92.16
2023-01-08T09:13:32.227Z,92.43
2023-01-08T09:16:19.130Z,92.50
2023-01-08T09:19:08.129Z,92.20
2023-01-08T09:21:56.181Z,92.29
2023-01-08T09:24:44.943Z,92.06
2023-01-08T09:27:32.051Z,92.55
2023-01-08T09:30:18.579Z,92.39
2023-01-08T09:33:05.895Z,92.33
2023-01-08T09:35:52.926Z,92.01
2023-01-08T09:38:39.489Z,92.28
2023-01-08T09:41:31.103Z,92.18
2023-01-08T09:44:22.690Z,92.07
2023-01-08T09:47:28.754Z,91.48
2023-01-08T09:50:15.726Z,91.14
2023-01-08T09:53:02.890Z,90.99
2023-01-08T09:56:10.129Z,90.70
2023-01-08T09:59:03.319Z,90.64
2023-01-08T10:01:52.559Z,90.10
2023-01-08T10:04:44.083Z,89.47
2023-01-08T10:07:31.341Z,89.41
2023-01-08T10:10:21.882Z,89.96
2023-01-08T10:13:11.512Z,89.35
2023-01-08T10:15:59.992Z,89.34
2023-01-08T10:18:47.366Z,88.96
2023-01-08T10:21:40.536Z,89.02
2023-01-08T10:24:36.256Z,88.86
2023-01-08T10:27:25.100Z,88.59
2023-01-08T10:30:19.933Z,88.06
2023-01-08T10:33:13.569Z,87.81
2023-01-08T10:36:04.137Z,87.71
2023-01-08T10:38:59.752Z,87.59
2023-01-08T10:41:48.740Z,87.64
2023-01-08T10:44:36.551Z,87.33
2023-01-08T10:47:24.211Z,86.78
2023-01-08T10:50:21.075Z,86.72
2023-01-08T10:53:24.728Z,87.26
2023-01-08T10:56:42.243Z,87.47
2023-01-08T10:59:29.459Z,87.59
2023-01-08T11:02:42.571Z,87.35
2023-01-08T11:05:37.213Z,87.48
2023-01-08T11:08:24.965Z,87.22
2023-01-08T11:11:12.155Z,87.18
2023-01-08T11:14:01.087Z,87.18
2023-01-08T11:16:48.541Z,86.93
2023-01-08T11:19:35.321Z,87.17
2023-01-08T11:22:24.364Z,87.12
2023-01-08T11:25:19.989Z,87.13
2023-01-08T11:28:13.016Z,86.68
2023-01-08T11:31:14.542Z,87.13
2023-01-08T11:34:36.078Z,86.99
2023-01-08T11:37:30.700Z,87.42
2023-01-08T11:40:26.333Z,87.12
2023-01-08T11:43:16.402Z,86.49
2023-01-08T11:46:33.718Z,86.68
2023-01-08T11:49:39.805Z,86.34
2023-01-08T11:52:36.011Z,86.51
2023-01-08T11:55:38.882Z,86.60
2023-01-08T11:58:38.595Z,86.67
2023-01-08T12:01:49.167Z,86.74
2023-01-08T12:04:46.559Z,87.07
2023-01-08T12:07:50.276Z,86.77
2023-01-08T12:11:27.650Z,86.86
2023-01-08T12:14:36.291Z,86.75
2023-01-08T12:24:15.553Z,87.43
2023-01-08T12:27:18.236Z,87.49
2023-01-08T12:30:12.414Z,86.80
2023-01-08T12:33:05.710Z,86.79
2023-01-08T12:36:00.457Z,86.98
2023-01-08T12:38:54.915Z,87.23
2023-01-08T12:41:45.652Z,87.29
2023-01-08T12:44:33.451Z,87.57
2023-01-08T12:47:25.767Z,87.86
2023-01-08T12:50:39.143Z,87.83
2023-01-08T12:53:48.783Z,87.95
2023-01-08T12:57:07.255Z,87.91
2023-01-08T13:00:24.839Z,87.72
2023-01-08T13:03:15.458Z,87.82
2023-01-08T13:06:17.298Z,87.73
2023-01-08T13:09:04.740Z,88.10
2023-01-08T13:11:53.998Z,87.98
2023-01-08T13:14:49.582Z,88.39
2023-01-08T13:17:37.936Z,88.48
2023-01-08T13:20:27.832Z,88.56
2023-01-08T13:23:27.505Z,88.32
2023-01-08T13:26:14.398Z,88.53
2023-01-08T13:29:23.841Z,88.81
2023-01-08T13:32:47.489Z,88.77
2023-01-08T13:35:34.682Z,89.15
2023-01-08T13:53:03.967Z,90.97
2023-01-08T13:56:05.579Z,91.21
2023-01-08T13:58:53.946Z,91.24
2023-01-08T14:01:39.093Z,91.43
2023-01-08T14:04:24.904Z,91.69
2023-01-08T14:07:13.453Z,92.14
2023-01-08T14:10:13.307Z,92.30
2023-01-08T14:13:07.037Z,92.20
2023-01-08T14:15:52.752Z,92.52
2023-01-08T14:18:46.332Z,92.25
2023-01-08T14:21:31.902Z,92.14
2023-01-08T14:24:19.579Z,92.16
2023-01-08T14:27:27.634Z,92.39
2023-01-08T14:30:16.809Z,93.36
2023-01-08T14:33:03.971Z,93.18
2023-01-08T14:35:52.377Z,93.11
2023-01-08T14:38:39.146Z,93.07
2023-01-08T14:41:56.733Z,93.04
2023-01-08T14:44:46.096Z,93.01
2023-01-08T14:47:55.850Z,92.97
2023-01-08T14:50:45.536Z,92.97
2023-01-08T14:53:43.059Z,93.09
2023-01-08T14:56:36.053Z,93.00
2023-01-08T14:59:28.301Z,93.06
2023-01-08T15:02:25.207Z,92.79
2023-01-08T15:05:15.298Z,93.05
2023-01-08T15:08:22.742Z,92.93
2023-01-08T15:11:18.858Z,92.78
2023-01-08T15:14:14.713Z,92.78
2023-01-08T15:17:17.242Z,92.58
2023-01-08T15:20:05.461Z,92.47
2023-01-08T15:22:52.362Z,92.48
2023-01-08T15:25:39.016Z,92.68
2023-01-08T15:28:26.846Z,92.54
2023-01-08T15:31:33.269Z,92.61
2023-01-08T15:34:20.947Z,92.56
2023-01-08T15:37:07.696Z,92.41
2023-01-08T15:40:00.397Z,92.03
2023-01-08T15:43:05.664Z,92.14
2023-01-08T15:45:52.078Z,92.06
2023-01-08T15:48:39.281Z,92.11
2023-01-08T15:51:30.160Z,91.71
2023-01-08T15:54:17.088Z,91.61
2023-01-08T15:57:03.647Z,91.85
2023-01-08T15:59:50.555Z,91.90
2023-01-08T16:02:46.702Z,91.89
2023-01-08T16:05:35.184Z,92.05
2023-01-08T16:08:22.350Z,91.72
2023-01-08T16:11:08.817Z,92.33
2023-01-08T16:13:55.724Z,92.47
2023-01-08T16:17:16.661Z,92.35
2023-01-08T16:20:25.797Z,92.72
2023-01-08T16:23:14.211Z,92.52
2023-01-08T16:26:04.753Z,92.42
2023-01-08T16:28:51.613Z,92.11
2023-01-08T16:31:38.685Z,92.05
2023-01-08T16:34:25.313Z,91.67
2023-01-08T16:37:11.997Z,91.94
2023-01-08T16:39:58.867Z,91.99
2023-01-08T16:42:46.207Z,91.78
2023-01-08T16:45:33.345Z,92.00
2023-01-08T16:48:20.199Z,92.22
2023-01-08T16:51:07.411Z,92.28
2023-01-08T16:53:54.502Z,92.14
2023-01-08T16:56:41.042Z,92.24
2023-01-08T16:59:27.976Z,92.57
2023-01-08T17:02:16.868Z,92.44
2023-01-08T17:05:03.964Z,92.03
2023-01-08T17:07:52.813Z,92.03
2023-01-08T17:10:39.769Z,92.10
2023-01-08T17:13:26.453Z,92.03
2023-01-08T17:16:15.727Z,92.41
2023-01-08T17:19:03.206Z,92.87
2023-01-08T17:21:51.418Z,92.64
2023-01-08T17:24:39.528Z,92.44
2023-01-08T17:27:26.778Z,92.20
2023-01-08T17:30:17.074Z,92.13
2023-01-08T17:33:04.288Z,92.37
2023-01-08T17:35:51.583Z,92.43
2023-01-08T17:44:52.893Z,93.08
2023-01-08T17:47:39.829Z,93.26
2023-01-08T17:50:27.735Z,92.99
2023-01-08T17:53:14.729Z,92.92
2023-01-08T17:56:05.855Z,92.42
2023-01-08T17:58:52.470Z,92.48
2023-01-08T18:01:39.304Z,92.81
2023-01-08T18:04:27.757Z,92.73
2023-01-08T18:07:15.562Z,92.83
2023-01-08T18:10:03.731Z,92.99
2023-01-08T18:12:50.249Z,93.25
2023-01-08T18:15:36.888Z,93.35
2023-01-08T18:18:23.796Z,93.52
2023-01-08T18:21:10.577Z,93.86
2023-01-08T18:23:57.249Z,93.93
2023-01-08T18:26:46.751Z,93.85
2023-01-08T18:29:34.471Z,93.69
2023-01-08T18:32:25.934Z,93.73
2023-01-08T18:35:12.887Z,93.70
2023-01-08T18:37:59.503Z,93.69
2023-01-08T18:40:46.426Z,93.16
2023-01-08T18:43:35.498Z,93.35
2023-01-08T18:46:25.639Z,93.70
2023-01-08T18:49:12.464Z,93.98
2023-01-08T18:52:02.532Z,93.70
2023-01-08T18:54:49.171Z,93.30
2023-01-08T18:57:35.702Z,92.96
2023-01-08T19:00:23.413Z,93.28
2023-01-08T19:03:12.318Z,93.35
2023-01-08T19:05:59.452Z,93.34
2023-01-08T19:08:46.016Z,92.96
2023-01-08T19:11:32.547Z,92.93
2023-01-08T19:14:19.247Z,93.17
2023-01-08T19:17:05.993Z,93.33
2023-01-08T19:19:53.065Z,93.29
2023-01-08T19:22:39.769Z,93.33
2023-01-08T19:25:27.119Z,93.23
2023-01-08T19:28:15.682Z,93.07
2023-01-08T19:31:02.800Z,92.87
2023-01-08T19:33:49.240Z,92.83
2023-01-08T19:36:42.340Z,92.99
2023-01-08T19:39:30.390Z,93.25
2023-01-08T19:42:35.547Z,93.28
2023-01-08T19:45:22.152Z,93.34
2023-01-08T19:48:10.465Z,93.13
2023-01-08T19:50:59.090Z,92.97
2023-01-08T19:53:47.165Z,93.03
2023-01-08T19:56:33.643Z,93.21
2023-01-08T19:59:21.762Z,92.77
2023-01-08T20:02:10.308Z,92.46
2023-01-08T20:04:57.186Z,92.37
2023-01-08T20:07:46.506Z,92.50
2023-01-08T20:12:28.948Z,93.02
2023-01-08T20:15:16.966Z,93.67
2023-01-08T20:18:03.163Z,93.23
2023-01-08T20:20:50.344Z,92.95
2023-01-08T20:23:36.850Z,92.78
2023-01-08T20:26:21.991Z,92.90
2023-01-08T20:29:14.029Z,93.14
2023-01-08T20:37:56.003Z,94.01
2023-01-08T20:40:42.593Z,94.61
2023-01-08T20:43:29.298Z,94.47
2023-01-08T20:46:15.994Z,94.54
2023-01-08T20:49:05.280Z,94.50
2023-01-08T20:51:58.545Z,94.42
2023-01-08T20:54:46.362Z,94.50
2023-01-08T20:57:32.921Z,94.40
2023-01-08T21:00:21.527Z,94.57
2023-01-08T21:03:08.216Z,94.66
2023-01-08T21:05:54.437Z,94.99
2023-01-08T21:08:41.491Z,95.13
2023-01-08T21:11:28.082Z,95.51
2023-01-08T21:14:14.233Z,95.66
2023-01-08T21:17:00.980Z,95.50
2023-01-08T21:19:47.439Z,95.55
2023-01-08T21:22:34.062Z,95.70
2023-01-08T21:25:20.638Z,95.87
2023-01-08T21:28:08.151Z,95.79
2023-01-08T21:34:32.855Z,96.05
2023-01-08T21:37:18.358Z,96.32
2023-01-08T21:40:06.144Z,96.65
2023-01-08T21:43:09.939Z,96.33
2023-01-08T21:46:00.905Z,96.33
2023-01-08T21:48:50.920Z,96.67
2023-01-08T21:51:54.714Z,96.59
2023-01-08T21:54:40.167Z,96.78
2023-01-08T21:57:28.871Z,97.11
2023-01-08T22:00:14.640Z,97.16
2023-01-08T22:02:59.922Z,97.25
2023-01-08T22:05:56.684Z,97.35
2023-01-08T22:08:42.200Z,97.58
2023-01-08T22:11:27.425Z,97.60
2023-01-08T22:14:13.071Z,97.42
2023-01-08T22:16:58.465Z,97.14
2023-01-08T22:19:43.649Z,97.10
2023-01-08T22:22:29.133Z,96.97
2023-01-08T22:25:14.285Z,97.28
2023-01-08T22:27:59.462Z,97.48
2023-01-08T22:30:44.804Z,97.43
2023-01-08T22:33:29.956Z,97.11
2023-01-08T22:36:15.182Z,97.19
2023-01-08T22:39:04.749Z,96.96
2023-01-08T22:41:49.921Z,96.88
2023-01-08T22:44:35.192Z,96.77
2023-01-08T22:47:20.962Z,96.44
2023-01-08T22:50:06.235Z,96.66
2023-01-08T22:52:51.275Z,96.84
2023-01-08T22:55:45.513Z,97.23
2023-01-08T22:58:30.732Z,97.36
2023-01-08T23:01:26.886Z,97.32
2023-01-08T23:04:12.363Z,97.04
2023-01-08T23:06:57.901Z,97.35
2023-01-08T23:09:43.193Z,97.45
2023-01-08T23:12:31.656Z,97.60
2023-01-08T23:15:19.056Z,97.75
2023-01-08T23:18:05.022Z,97.77
2023-01-08T23:20:50.286Z,97.64
2023-01-08T23:23:36.093Z,97.85
2023-01-08T23:26:27.429Z,98.15
2023-01-08T23:29:12.890Z,98.07
2023-01-08T23:31:58.233Z,98.05
2023-01-08T23:34:43.364Z,98.00
2023-01-08T23:37:28.757Z,98.34
2023-01-08T23:40:13.934Z,98.37
2023-01-08T23:42:59.428Z,98.22
2023-01-08T23:45:44.886Z,97.90
2023-01-08T23:48:30.632Z,98.29
2023-01-08T23:51:15.879Z,98.32
2023-01-08T23:54:02.258Z,98.41
2023-01-08T23:56:48.516Z,98.49
2023-01-08T23:59:33.667Z,98.40
